TimeCST,TemperatureF,Dew PointF,Humidity,Sea Level PressureIn,VisibilityMPH,Wind Direction,Wind SpeedMPH,Gust SpeedMPH,PrecipitationIn,Events,Conditions,WindDirDegrees,DateUTC
6:00 AM,73.4,62.6,69,29.87,-9999.0,West,5.8,-,N/A,,Clear,260,2013-03-05 12:00:00
7:00 AM,77.0,62.6,61,29.87,-9999.0,WNW,3.5,-,N/A,,Clear,300,2013-03-05 13:00:00
8:00 AM,82.4,62.6,51,29.88,-9999.0,West,4.6,-,N/A,,Clear,260,2013-03-05 14:00:00
9:00 AM,87.8,62.6,43,29.88,-9999.0,ENE,13.8,-,N/A,,Clear,70,2013-03-05 15:00:00
10:00 AM,89.6,62.6,40,29.88,-9999.0,East,15.0,-,N/A,,Clear,90,2013-03-05 16:00:00
11:00 AM,89.6,62.6,40,29.87,-9999.0,ENE,18.4,-,N/A,,Clear,70,2013-03-05 17:00:00
12:00 PM,87.8,62.6,43,29.85,-9999.0,East,20.7,-,N/A,,Clear,80,2013-03-05 18:00:00
1:00 PM,89.6,64.4,43,29.83,-9999.0,East,18.4,-,N/A,,Clear,80,2013-03-05 19:00:00
2:00 PM,89.6,64.4,43,29.81,-9999.0,ENE,13.8,-,N/A,,Clear,70,2013-03-05 20:00:00
3:00 PM,89,65,35,29.81,12,ENE,16.1,,,,Scattered Clouds,70,2013-03-05 21:00:00
3:00 PM,89.6,64.4,43,29.79,6.2,ENE,16.1,27.6,N/A,,Scattered Clouds,70,2013-03-05 21:00:00
4:00 PM,87.8,64.4,46,29.79,6.2,ENE,19.6,-,N/A,,Mostly Cloudy,70,2013-03-05 22:00:00
5:00 PM,86.0,66.2,51,29.80,6.2,ENE,19.6,-,N/A,,Mostly Cloudy,60,2013-03-05 23:00:00
6:00 PM,82,66,48,29.83,12,ENE,16.1,,,,Scattered Clouds,70,2013-03-06 00:00:00
6:00 PM,82.4,66.2,58,29.81,6.2,ENE,16.1,-,N/A,,Mostly Cloudy,70,2013-03-06 00:00:00
7:00 PM,80.6,66.2,61,29.83,6.2,East,13.8,-,N/A,,Scattered Clouds,80,2013-03-06 01:00:00
8:00 PM,78.8,66.2,65,29.86,6.2,ENE,12.7,-,N/A,,Mostly Cloudy,70,2013-03-06 02:00:00
9:00 PM,78.8,66.2,65,29.90,-9999.0,NW,5.8,-,N/A,,Clear,320,2013-03-06 03:00:00
10:00 PM,78.8,66.2,65,29.89,-9999.0,East,8.1,-,N/A,,Clear,100,2013-03-06 04:00:00
11:00 PM,77.0,66.2,69,29.88,-9999.0,NE,6.9,-,N/A,,Clear,40,2013-03-06 05:00:00